This is the latest recevied weather packets stored in our database for station/object CW79215. If no packets are shown the sender has not sent any weather packets the latest 10 day(s).
| Time | Temp. | Humidity | Pressure | Rain* | Wind** | Luminosity | Snow |
|---|---|---|---|---|---|---|---|
| 1777952238 | 12.22° C | 78% | 1014.5 hPa | - | - | - | - |
| 1777951338 | 12.78° C | 76% | 1014.5 hPa | - | - | - | - |
| 1777950438 | 12.22° C | 78% | 1014.6 hPa | - | - | - | - |
| 1777949537 | 12.22° C | 78% | 1014.7 hPa | - | - | - | - |
| 1777948637 | 12.78° C | 78% | 1014.9 hPa | - | - | - | - |
| 1777947737 | 12.22° C | 79% | 1015.2 hPa | - | - | - | - |
| 1777946837 | 12.22° C | 79% | 1015.2 hPa | - | - | - | - |
| 1777945937 | 12.22° C | 79% | 1015.4 hPa | - | - | - | - |
| 1777945037 | 12.78° C | 78% | 1015.5 hPa | - | - | - | - |
| 1777944137 | 12.78° C | 78% | 1015.6 hPa | - | - | - | - |
| 1777943237 | 12.78° C | 78% | 1015.7 hPa | - | - | - | - |
| 1777942337 | 12.78° C | 78% | 1015.9 hPa | - | - | - | - |
| 1777941437 | 12.78° C | 78% | 1016.1 hPa | - | - | - | - |
| 1777940537 | 13.33° C | 78% | 1016.4 hPa | - | - | - | - |
| 1777939637 | 12.78° C | 79% | 1016.5 hPa | - | - | - | - |
| 1777938737 | 13.33° C | 77% | 1016.5 hPa | - | - | - | - |
| 1777937836 | 13.33° C | 77% | 1016.8 hPa | - | - | - | - |
| 1777936936 | 13.33° C | 77% | 1016.8 hPa | - | - | - | - |
| 1777936036 | 13.89° C | 74% | 1016.8 hPa | - | - | - | - |
| 1777935136 | 12.78° C | 80% | 1016.9 hPa | - | - | - | - |
| 1777934236 | 13.33° C | 79% | 1016.9 hPa | - | - | - | - |
| 1777933336 | 13.33° C | 78% | 1016.8 hPa | - | - | - | - |
| 1777932436 | 13.33° C | 78% | 1017.1 hPa | - | - | - | - |
| 1777931536 | 13.33° C | 78% | 1017.2 hPa | - | - | - | - |
| 1777930636 | 13.89° C | 77% | 1017.4 hPa | - | - | - | - |
* Rain since midnight (hover to see other rain measurements)
** Current wind speed in m/s (hover to see current wind gust speed)